Time;durP1;ratioP1;P1;durP2;ratioP2;P2;SDS_P1;SDS_P2;PMS_P1;PMS_P2;Temp;Humidity;BMP_temperature;BMP_pressure;BME280_temperature;BME280_humidity;BME280_pressure;Samples;Min_cycle;Max_cycle;Signal;HPM_P1;HPM_P2
2021/08/30 00:02:06;;;;;;;6.67;6.00;;;;;;;13.82;100.00;96645.84;5041409;28;20182;-61
2021/08/30 00:04:32;;;;;;;7.57;6.17;;;;;;;13.96;100.00;96646.22;5037092;28;20178;-62
2021/08/30 00:06:57;;;;;;;8.70;6.77;;;;;;;13.96;100.00;96643.59;5044125;28;20194;-61
2021/08/30 00:09:22;;;;;;;7.43;6.60;;;;;;;14.04;100.00;96640.50;5044140;28;20653;-61
2021/08/30 00:11:48;;;;;;;10.93;7.67;;;;;;;13.80;100.00;96640.03;5043437;28;20182;-61
2021/08/30 00:14:13;;;;;;;11.10;7.77;;;;;;;13.89;100.00;96641.16;5036356;28;20187;-72
2021/08/30 00:16:39;;;;;;;10.10;7.77;;;;;;;13.89;100.00;96645.63;5045807;28;20187;-61
2021/08/30 00:19:04;;;;;;;12.00;7.97;;;;;;;14.05;100.00;96642.88;5042523;28;20604;-61
2021/08/30 00:21:30;;;;;;;11.77;8.90;;;;;;;14.08;100.00;96634.47;5042251;28;20185;-62
2021/08/30 00:23:55;;;;;;;9.70;8.07;;;;;;;14.04;100.00;96641.28;5051364;28;20178;-63
2021/08/30 00:26:21;;;;;;;11.00;8.73;;;;;;;13.86;100.00;96639.03;5050119;28;20209;-63
2021/08/30 00:28:46;;;;;;;10.83;8.77;;;;;;;13.83;100.00;96638.72;5042456;28;20190;-62
2021/08/30 00:31:11;;;;;;;12.23;8.97;;;;;;;13.82;100.00;96643.19;5035617;28;20190;-63
2021/08/30 00:33:38;;;;;;;12.23;9.00;;;;;;;13.65;100.00;96630.13;5039614;28;20544;-62
2021/08/30 00:36:04;;;;;;;11.33;8.93;;;;;;;13.81;100.00;96631.09;5042283;28;20186;-63
2021/08/30 00:38:29;;;;;;;11.07;9.00;;;;;;;13.75;100.00;96634.72;5040419;28;20600;-62
2021/08/30 00:40:54;;;;;;;10.93;8.50;;;;;;;13.78;100.00;96628.16;5034835;28;20286;-64
2021/08/30 00:43:20;;;;;;;9.93;8.10;;;;;;;13.88;100.00;96634.28;5034963;28;20194;-62
2021/08/30 00:45:45;;;;;;;11.40;9.13;;;;;;;13.92;100.00;96637.25;5045881;28;20518;-62
2021/08/30 00:48:11;;;;;;;10.47;8.87;;;;;;;13.83;100.00;96630.81;5042382;28;20188;-62
2021/08/30 00:50:36;;;;;;;13.47;9.30;;;;;;;13.88;100.00;96630.88;5044801;28;20265;-62
2021/08/30 00:53:03;;;;;;;11.60;9.73;;;;;;;13.91;100.00;96625.09;5035940;28;20186;-62
2021/08/30 00:55:29;;;;;;;11.30;9.20;;;;;;;13.82;100.00;96627.38;5045703;28;20187;-62
2021/08/30 00:57:54;;;;;;;12.20;9.43;;;;;;;13.76;100.00;96627.63;5040473;28;20177;-62
2021/08/30 01:00:19;;;;;;;12.03;9.67;;;;;;;13.73;100.00;96627.06;5037180;28;20202;-62
2021/08/30 01:02:45;;;;;;;12.33;9.60;;;;;;;13.94;100.00;96633.28;5041311;28;20217;-62
2021/08/30 01:05:13;;;;;;;14.53;9.93;;;;;;;13.77;100.00;96624.72;5031169;28;20244;-63
2021/08/30 01:08:03;;;;;;;14.43;10.27;;;;;;;13.83;100.00;96628.97;5048424;28;20221;-62
2021/08/30 01:10:54;;;;;;;11.30;9.43;;;;;;;13.99;100.00;96628.06;5039202;28;20193;-70
2021/08/30 01:13:19;;;;;;;12.70;9.63;;;;;;;14.15;100.00;96623.72;5048095;28;20231;-62
2021/08/30 01:15:46;;;;;;;12.83;9.93;;;;;;;14.03;100.00;96617.84;5045117;28;20209;-62
2021/08/30 01:18:26;;;;;;;12.97;10.00;;;;;;;13.84;100.00;96611.34;5040924;28;20526;-62
2021/08/30 01:21:16;;;;;;;12.70;10.30;;;;;;;13.75;100.00;96618.91;5023520;28;20665;-62
2021/08/30 01:23:45;;;;;;;13.37;10.43;;;;;;;13.72;100.00;96622.84;5049155;28;20213;-62
2021/08/30 01:26:14;;;;;;;13.17;10.63;;;;;;;13.82;100.00;96616.09;5044238;28;20197;-62
2021/08/30 01:28:46;;;;;;;14.10;10.60;;;;;;;13.97;100.00;96613.56;5039252;28;20186;-62
2021/08/30 01:31:25;;;;;;;12.87;10.27;;;;;;;14.20;100.00;96615.84;5038448;28;20205;-62
2021/08/30 01:33:52;;;;;;;12.13;9.73;;;;;;;13.87;100.00;96611.66;5042243;28;20540;-65
2021/08/30 01:36:19;;;;;;;12.80;10.27;;;;;;;13.80;100.00;96612.91;5039895;28;20182;-71
2021/08/30 01:38:47;;;;;;;10.50;9.40;;;;;;;13.98;100.00;96613.31;5037961;28;20202;-66
2021/08/30 01:41:17;;;;;;;13.00;10.23;;;;;;;14.19;100.00;96611.63;5030809;28;20310;-62
2021/08/30 01:43:45;;;;;;;12.57;10.57;;;;;;;14.19;100.00;96613.47;5039702;28;20190;-62
2021/08/30 01:46:11;;;;;;;10.17;9.03;;;;;;;14.11;100.00;96612.06;5041112;28;20221;-63
2021/08/30 01:48:37;;;;;;;10.97;9.57;;;;;;;13.96;100.00;96611.97;5042291;28;20988;-62
2021/08/30 01:51:04;;;;;;;12.07;10.20;;;;;;;14.08;100.00;96607.31;5041892;28;20193;-62
2021/08/30 01:53:30;;;;;;;10.80;9.67;;;;;;;13.95;100.00;96610.38;5035141;28;20238;-62
2021/08/30 01:55:59;;;;;;;13.47;10.03;;;;;;;13.92;100.00;96603.78;5043466;28;20209;-66
2021/08/30 02:00:53;;;;;;;13.20;10.07;;;;;;;14.09;100.00;96609.72;5046756;28;20189;-62
2021/08/30 02:03:21;;;;;;;14.00;9.83;;;;;;;13.96;100.00;96604.06;5045300;28;20179;-67
2021/08/30 02:05:49;;;;;;;10.80;9.47;;;;;;;13.93;100.00;96610.63;5044745;28;20210;-62
2021/08/30 02:08:15;;;;;;;10.83;9.77;;;;;;;14.03;100.00;96605.44;5039817;28;20217;-72
2021/08/30 02:10:47;;;;;;;10.00;8.93;;;;;;;13.95;100.00;96603.28;5043660;28;20220;-62
2021/08/30 02:13:14;;;;;;;10.80;8.80;;;;;;;13.90;100.00;96597.16;5034844;28;20171;-63
2021/08/30 02:15:40;;;;;;;11.60;9.60;;;;;;;13.97;100.00;96603.81;5040801;28;20208;-62
2021/08/30 02:18:19;;;;;;;10.00;8.53;;;;;;;13.87;100.00;96605.59;5042422;28;20182;-62
2021/08/30 02:20:52;;;;;;;10.67;9.50;;;;;;;13.89;100.00;96600.84;5042453;28;20303;-62
2021/08/30 02:23:22;;;;;;;9.70;8.70;;;;;;;13.78;100.00;96599.16;5038847;28;20172;-71
2021/08/30 02:25:50;;;;;;;10.80;9.70;;;;;;;13.92;100.00;96601.16;5038961;28;20244;-62
2021/08/30 02:28:16;;;;;;;11.00;9.63;;;;;;;13.77;100.00;96598.38;5041117;28;20179;-70
2021/08/30 02:30:42;;;;;;;13.23;10.20;;;;;;;13.66;100.00;96601.97;5043353;28;20185;-62
2021/08/30 02:33:12;;;;;;;12.00;10.13;;;;;;;13.85;100.00;96594.50;5043966;28;20239;-62
2021/08/30 02:35:41;;;;;;;12.73;9.93;;;;;;;13.77;100.00;96595.75;5041218;28;20554;-62
2021/08/30 02:38:09;;;;;;;11.97;9.83;;;;;;;13.76;100.00;96596.00;5035787;28;20175;-63
2021/08/30 02:40:36;;;;;;;9.37;8.37;;;;;;;13.57;100.00;96596.38;5041037;28;20209;-63
2021/08/30 02:43:03;;;;;;;11.77;8.63;;;;;;;13.56;100.00;96588.72;5046800;28;20722;-62
2021/08/30 02:45:30;;;;;;;11.43;9.20;;;;;;;13.60;100.00;96590.59;5042210;28;20265;-62
2021/08/30 02:48:02;;;;;;;8.07;7.27;;;;;;;13.61;100.00;96584.28;5043054;28;20181;-63
2021/08/30 02:50:29;;;;;;;8.10;7.30;;;;;;;13.74;100.00;96583.88;5035335;28;20186;-63
2021/08/30 02:52:58;;;;;;;9.67;7.37;;;;;;;13.68;100.00;96576.97;5034901;28;20199;-64
2021/08/30 02:55:23;;;;;;;10.27;7.13;;;;;;;13.64;100.00;96572.47;5034321;28;20189;-63
2021/08/30 02:57:49;;;;;;;6.83;6.13;;;;;;;13.55;100.00;96571.31;5040599;28;20268;-63
2021/08/30 03:00:16;;;;;;;8.13;7.10;;;;;;;13.66;100.00;96571.16;5045781;28;20222;-70
2021/08/30 03:02:43;;;;;;;7.63;6.07;;;;;;;13.64;100.00;96575.09;5040124;28;20186;-63
2021/08/30 03:05:10;;;;;;;7.83;6.50;;;;;;;13.52;100.00;96567.38;5042145;28;20589;-63
2021/08/30 03:07:36;;;;;;;6.47;5.43;;;;;;;13.50;100.00;96579.19;5047804;28;20185;-68
2021/08/30 03:10:03;;;;;;;6.23;5.63;;;;;;;13.66;100.00;96570.34;5042283;28;20187;-63
2021/08/30 03:12:33;;;;;;;6.73;5.90;;;;;;;13.74;100.00;96578.63;5041521;28;20190;-63
2021/08/30 03:15:03;;;;;;;6.40;5.30;;;;;;;13.59;100.00;96578.50;5050638;28;20201;-63
2021/08/30 03:17:31;;;;;;;6.43;5.73;;;;;;;13.47;100.00;96577.06;5022582;28;20174;-63
2021/08/30 03:19:57;;;;;;;6.03;5.23;;;;;;;13.60;100.00;96574.00;5044611;28;20203;-64
2021/08/30 03:22:25;;;;;;;5.77;5.17;;;;;;;13.47;100.00;96567.31;5052004;28;20236;-63
2021/08/30 03:24:52;;;;;;;5.00;4.53;;;;;;;13.53;100.00;96568.16;5038718;28;20174;-63
2021/08/30 03:27:18;;;;;;;5.97;5.37;;;;;;;13.67;100.00;96570.13;5043813;28;20277;-71
2021/08/30 03:29:44;;;;;;;4.93;4.43;;;;;;;13.64;100.00;96570.63;5051181;28;20270;-63
2021/08/30 03:32:13;;;;;;;6.50;4.60;;;;;;;13.47;100.00;96569.94;5042761;28;20627;-64
2021/08/30 03:34:38;;;;;;;5.30;4.83;;;;;;;13.43;100.00;96565.44;5041514;28;20182;-63
2021/08/30 03:37:06;;;;;;;5.33;4.83;;;;;;;13.40;100.00;96566.72;5039283;28;20190;-63
2021/08/30 03:39:31;;;;;;;5.27;4.33;;;;;;;13.41;100.00;96559.63;5042529;28;20666;-63
2021/08/30 03:41:59;;;;;;;6.00;5.27;;;;;;;13.30;100.00;96562.16;5041886;28;20233;-63
2021/08/30 03:44:26;;;;;;;9.00;6.43;;;;;;;13.36;100.00;96564.84;5034074;28;20265;-63
2021/08/30 03:46:52;;;;;;;8.47;7.10;;;;;;;13.44;100.00;96565.16;5034752;28;20524;-63
2021/08/30 03:49:19;;;;;;;9.63;7.43;;;;;;;13.25;100.00;96556.06;5049443;28;20186;-71
2021/08/30 03:51:44;;;;;;;10.63;7.87;;;;;;;13.24;100.00;96554.47;5039051;28;20570;-63
2021/08/30 03:54:10;;;;;;;10.13;8.27;;;;;;;13.10;100.00;96556.66;5035533;28;20186;-63
2021/08/30 03:56:37;;;;;;;11.33;8.33;;;;;;;13.25;100.00;96563.94;5046411;28;20185;-63
2021/08/30 03:59:04;;;;;;;11.27;8.47;;;;;;;13.27;100.00;96560.00;5044256;28;20206;-63
2021/08/30 04:01:30;;;;;;;11.73;9.03;;;;;;;13.33;100.00;96556.38;5047209;28;20678;-63
2021/08/30 04:03:59;;;;;;;11.10;8.87;;;;;;;13.39;100.00;96553.78;5041231;28;20222;-63
2021/08/30 04:06:30;;;;;;;13.07;9.07;;;;;;;13.35;100.00;96569.31;5044073;28;20182;-63
2021/08/30 04:08:56;;;;;;;15.83;10.47;;;;;;;13.39;100.00;96565.13;5045352;28;20208;-63
2021/08/30 04:11:23;;;;;;;15.30;10.03;;;;;;;13.24;100.00;96565.78;5044260;28;20174;-63
2021/08/30 04:13:49;;;;;;;13.47;10.53;;;;;;;13.24;100.00;96565.00;5044498;28;20182;-63
2021/08/30 04:16:14;;;;;;;15.63;11.53;;;;;;;13.26;100.00;96574.22;5041814;28;20189;-70
2021/08/30 04:18:40;;;;;;;14.77;10.57;;;;;;;13.34;100.00;96567.72;5038439;28;20186;-62
2021/08/30 04:21:05;;;;;;;17.83;11.43;;;;;;;13.34;100.00;96567.72;5043650;28;20193;-63
2021/08/30 04:23:31;;;;;;;17.20;11.57;;;;;;;13.42;100.00;96572.53;5043824;28;21033;-63
2021/08/30 04:25:57;;;;;;;17.73;11.87;;;;;;;13.41;100.00;96570.16;5042314;28;20185;-63
2021/08/30 04:28:22;;;;;;;17.77;11.77;;;;;;;13.48;100.00;96565.47;5049643;28;20194;-67
2021/08/30 04:30:48;;;;;;;16.60;12.23;;;;;;;13.27;100.00;96564.47;5032642;28;20190;-61
2021/08/30 04:33:14;;;;;;;18.83;12.43;;;;;;;13.36;100.00;96560.38;5046660;28;20187;-61
2021/08/30 04:35:40;;;;;;;19.63;12.83;;;;;;;13.35;100.00;96564.03;5035763;28;20260;-61
2021/08/30 04:38:06;;;;;;;21.87;13.23;;;;;;;13.34;100.00;96567.72;5043104;28;20268;-62
2021/08/30 04:40:32;;;;;;;20.57;13.60;;;;;;;13.42;100.00;96566.47;5040700;28;20232;-61
2021/08/30 04:42:57;;;;;;;23.73;14.97;;;;;;;13.42;100.00;96575.19;5045951;28;20257;-62
2021/08/30 04:45:23;;;;;;;21.40;13.90;;;;;;;13.35;100.00;96569.31;5046094;28;20652;-63
2021/08/30 04:47:49;;;;;;;22.83;14.33;;;;;;;13.38;100.00;96578.53;5045924;28;20217;-61
2021/08/30 04:50:14;;;;;;;19.37;14.27;;;;;;;13.32;100.00;96581.13;5044270;28;20283;-71
2021/08/30 04:52:40;;;;;;;20.37;13.30;;;;;;;13.39;100.00;96574.84;5047743;28;20340;-64
2021/08/30 04:55:06;;;;;;;21.10;14.87;;;;;;;13.47;100.00;96574.41;5039997;28;20186;-64
2021/08/30 04:57:31;;;;;;;24.13;15.50;;;;;;;13.51;100.00;96578.13;5037599;28;20190;-61
2021/08/30 04:59:57;;;;;;;26.10;16.43;;;;;;;13.43;100.00;96584.63;5032886;28;20660;-61
2021/08/30 05:02:22;;;;;;;22.00;16.00;;;;;;;13.53;100.00;96582.13;5031664;28;20640;-62
2021/08/30 05:04:47;;;;;;;24.00;16.57;;;;;;;13.58;100.00;96587.44;5035798;28;20182;-65
2021/08/30 05:07:13;;;;;;;17.47;13.87;;;;;;;13.40;100.00;96581.72;5047081;28;20189;-62
2021/08/30 05:09:38;;;;;;;19.33;14.77;;;;;;;13.50;100.00;96573.91;5039070;28;20182;-62
2021/08/30 05:12:03;;;;;;;17.40;13.73;;;;;;;13.43;100.00;96581.25;5034314;28;20269;-62
2021/08/30 05:14:29;;;;;;;19.53;13.57;;;;;;;13.41;100.00;96583.31;5046897;28;20183;-64
2021/08/30 05:16:54;;;;;;;17.30;13.70;;;;;;;13.33;100.00;96581.91;5039916;28;20576;-62
2021/08/30 05:19:20;;;;;;;15.10;12.97;;;;;;;13.35;100.00;96585.09;5046386;28;20671;-64
2021/08/30 05:21:45;;;;;;;19.53;15.07;;;;;;;13.48;100.00;96578.66;5034565;28;20189;-62
2021/08/30 05:24:10;;;;;;;19.00;14.40;;;;;;;13.43;100.00;96583.88;5034998;28;20632;-62
2021/08/30 05:26:36;;;;;;;16.67;14.37;;;;;;;13.36;100.00;96589.34;5032741;28;20190;-61
2021/08/30 05:29:03;;;;;;;18.57;15.53;;;;;;;13.32;100.00;96586.38;5031378;28;20197;-61
2021/08/30 05:31:28;;;;;;;17.60;15.23;;;;;;;13.31;100.00;96582.19;5046884;28;20650;-61
2021/08/30 05:33:55;;;;;;;16.97;15.17;;;;;;;13.31;100.00;96586.66;5039685;28;20173;-62
2021/08/30 05:36:21;;;;;;;20.00;14.03;;;;;;;13.32;100.00;96589.00;5031458;28;20221;-61
2021/08/30 05:38:46;;;;;;;19.30;14.30;;;;;;;13.19;100.00;96589.44;5040064;28;20238;-62
2021/08/30 05:41:11;;;;;;;20.67;15.57;;;;;;;13.21;100.00;96581.25;5039732;28;20559;-62
2021/08/30 05:43:37;;;;;;;19.67;14.87;;;;;;;13.25;100.00;96585.81;5045455;28;21073;-61
2021/08/30 05:46:02;;;;;;;19.97;15.43;;;;;;;13.30;100.00;96593.75;5043929;28;20186;-61
2021/08/30 05:48:28;;;;;;;18.77;15.43;;;;;;;13.48;100.00;96595.25;5041783;28;20182;-62
2021/08/30 05:50:53;;;;;;;19.87;15.27;;;;;;;13.53;100.00;96594.50;5032070;28;20186;-62
2021/08/30 05:53:19;;;;;;;18.63;14.90;;;;;;;13.32;100.00;96588.22;5035147;28;20546;-64
2021/08/30 05:55:45;;;;;;;19.73;15.20;;;;;;;13.64;100.00;96583.00;5041279;28;20273;-62
2021/08/30 05:58:10;;;;;;;21.73;15.80;;;;;;;13.44;100.00;96598.59;5034607;28;20551;-63
2021/08/30 06:00:36;;;;;;;20.57;16.37;;;;;;;13.41;100.00;96594.63;5034729;28;20191;-61
2021/08/30 06:03:01;;;;;;;19.77;16.23;;;;;;;13.52;100.00;96593.69;5039746;28;20186;-62
2021/08/30 06:05:27;;;;;;;24.60;15.07;;;;;;;13.40;100.00;96603.56;5042758;28;20181;-66
2021/08/30 06:07:52;;;;;;;18.37;14.37;;;;;;;13.33;100.00;96602.97;5042986;28;20177;-61
2021/08/30 06:10:17;;;;;;;19.47;14.73;;;;;;;13.35;100.00;96605.38;5039412;28;20177;-70
2021/08/30 06:12:43;;;;;;;23.87;16.57;;;;;;;13.50;100.00;96606.31;5038172;28;20273;-61
2021/08/30 06:15:09;;;;;;;24.40;15.07;;;;;;;13.58;100.00;96607.69;5045444;28;20224;-61
2021/08/30 06:17:34;;;;;;;21.03;14.20;;;;;;;13.60;100.00;96600.31;5044593;28;20174;-62
2021/08/30 06:20:00;;;;;;;22.10;15.90;;;;;;;13.78;100.00;96610.50;5036171;28;20197;-61
2021/08/30 06:22:25;;;;;;;19.47;14.27;;;;;;;13.87;100.00;96605.59;5035852;28;20179;-61
2021/08/30 06:24:52;;;;;;;18.53;14.67;;;;;;;13.79;100.00;96611.31;5047975;28;20189;-61
2021/08/30 06:27:20;;;;;;;19.87;15.20;;;;;;;14.11;100.00;96607.59;5038554;28;20223;-67
2021/08/30 06:29:46;;;;;;;19.90;14.43;;;;;;;14.33;100.00;96609.31;5026094;28;20264;-63
2021/08/30 06:32:11;;;;;;;17.63;13.13;;;;;;;14.30;100.00;96608.00;5040023;28;20321;-62
2021/08/30 06:34:36;;;;;;;13.03;10.70;;;;;;;14.94;100.00;96598.06;5034102;28;20182;-60
2021/08/30 06:37:03;;;;;;;14.43;10.63;;;;;;;14.83;100.00;96606.19;5040194;28;20189;-60
2021/08/30 06:39:28;;;;;;;9.63;8.27;;;;;;;15.11;100.00;96599.69;5039033;28;20248;-61
2021/08/30 06:41:53;;;;;;;8.67;7.67;;;;;;;15.23;100.00;96608.97;5041982;28;20690;-63
2021/08/30 06:44:19;;;;;;;8.27;7.33;;;;;;;15.27;100.00;96614.53;5030530;28;20679;-61
2021/08/30 06:46:44;;;;;;;9.60;7.60;;;;;;;15.09;100.00;96615.03;5043450;28;20186;-60
2021/08/30 06:49:10;;;;;;;7.93;7.13;;;;;;;15.16;100.00;96620.84;5032803;28;20221;-61
2021/08/30 06:51:36;;;;;;;8.30;7.33;;;;;;;15.46;100.00;96617.50;5045510;28;20186;-61
2021/08/30 06:54:01;;;;;;;9.13;7.17;;;;;;;15.09;100.00;96622.94;5036993;28;20678;-61
2021/08/30 06:56:26;;;;;;;9.07;7.70;;;;;;;14.93;100.00;96630.00;5029389;28;20275;-61
2021/08/30 06:58:52;;;;;;;9.80;7.17;;;;;;;14.83;100.00;96624.66;5049327;28;20589;-61
2021/08/30 07:01:17;;;;;;;9.53;7.57;;;;;;;14.70;100.00;96625.16;5037467;28;20189;-61
2021/08/30 07:03:42;;;;;;;13.27;8.00;;;;;;;14.89;100.00;96621.78;5049290;28;20237;-62
2021/08/30 07:06:08;;;;;;;9.00;7.37;;;;;;;15.24;100.00;96617.69;5049139;28;20268;-61
2021/08/30 07:08:33;;;;;;;7.63;6.83;;;;;;;15.24;100.00;96620.34;5033060;28;20273;-61
2021/08/30 07:10:59;;;;;;;8.93;7.27;;;;;;;15.11;100.00;96616.34;5044836;28;20186;-62
2021/08/30 07:13:24;;;;;;;11.00;7.40;;;;;;;14.92;100.00;96617.84;5037051;28;20189;-61
2021/08/30 07:15:49;;;;;;;9.20;7.37;;;;;;;14.84;100.00;96623.63;5043528;28;20182;-61
2021/08/30 07:18:15;;;;;;;9.27;7.67;;;;;;;14.71;100.00;96632.00;5035261;28;20190;-61
2021/08/30 07:20:42;;;;;;;8.33;7.43;;;;;;;14.64;100.00;96624.31;5042037;28;20544;-61
2021/08/30 07:23:08;;;;;;;9.27;7.90;;;;;;;14.70;100.00;96633.84;5041264;28;20201;-61
2021/08/30 07:25:34;;;;;;;10.20;8.03;;;;;;;14.83;100.00;96629.94;5035332;28;20187;-61
2021/08/30 07:28:00;;;;;;;8.20;6.80;;;;;;;15.31;100.00;96629.63;5039654;28;20237;-61
2021/08/30 07:30:25;;;;;;;9.60;7.27;;;;;;;15.55;100.00;96629.19;5052173;28;20178;-61
2021/08/30 07:32:51;;;;;;;10.27;7.60;;;;;;;15.47;100.00;96629.66;5046622;28;20178;-61
2021/08/30 07:35:16;;;;;;;9.43;7.30;;;;;;;15.20;100.00;96622.72;5046798;28;20186;-61
2021/08/30 07:37:42;;;;;;;8.20;7.40;;;;;;;14.84;100.00;96634.16;5039223;28;20209;-61
2021/08/30 07:40:09;;;;;;;11.00;8.10;;;;;;;14.69;100.00;96640.19;5050483;28;20299;-62
2021/08/30 07:42:34;;;;;;;10.13;7.47;;;;;;;14.85;100.00;96641.84;5037786;28;20230;-62
2021/08/30 07:45:00;;;;;;;11.03;8.10;;;;;;;14.84;100.00;96637.59;5040308;28;20528;-62
2021/08/30 07:47:26;;;;;;;9.87;7.73;;;;;;;15.05;100.00;96630.56;5049234;28;20190;-62
2021/08/30 07:49:53;;;;;;;9.27;7.33;;;;;;;14.98;100.00;96638.75;5036369;28;20206;-62
2021/08/30 07:52:20;;;;;;;9.37;7.77;;;;;;;15.15;100.00;96632.47;5042267;28;20669;-62
2021/08/30 07:54:46;;;;;;;10.30;7.70;;;;;;;15.29;100.00;96642.28;5041094;28;20266;-63
2021/08/30 07:57:11;;;;;;;10.03;7.50;;;;;;;15.14;100.00;96650.16;5048445;28;20268;-63
2021/08/30 07:59:37;;;;;;;10.23;7.57;;;;;;;14.76;100.00;96655.78;5033457;28;20206;-62
2021/08/30 08:02:02;;;;;;;8.83;7.30;;;;;;;14.61;100.00;96647.75;5041013;28;20182;-62
2021/08/30 08:04:28;;;;;;;8.90;7.57;;;;;;;14.61;100.00;96655.69;5042332;28;20245;-62
2021/08/30 08:06:53;;;;;;;7.90;7.03;;;;;;;14.49;100.00;96661.13;5038237;28;20593;-63
2021/08/30 08:09:20;;;;;;;8.30;7.20;;;;;;;14.48;100.00;96663.00;5042310;28;20280;-62
2021/08/30 08:11:45;;;;;;;10.10;6.93;;;;;;;14.66;100.00;96659.13;5037994;28;20186;-62
2021/08/30 08:14:11;;;;;;;9.63;7.80;;;;;;;14.61;100.00;96664.38;5041511;28;20179;-62
2021/08/30 08:16:36;;;;;;;8.40;7.53;;;;;;;14.54;100.00;96666.47;5045923;28;20221;-62
2021/08/30 08:19:02;;;;;;;9.73;7.40;;;;;;;14.71;100.00;96667.06;5045577;28;20216;-62
2021/08/30 08:21:28;;;;;;;7.60;6.80;;;;;;;14.80;100.00;96668.19;5017516;28;20178;-62
2021/08/30 08:23:53;;;;;;;10.03;7.00;;;;;;;14.68;100.00;96664.97;5048933;28;20331;-66
2021/08/30 08:26:18;;;;;;;10.37;7.20;;;;;;;14.49;100.00;96661.94;5035299;28;20623;-63
2021/08/30 08:28:44;;;;;;;9.20;7.53;;;;;;;14.36;100.00;96659.72;5022338;28;20217;-62
2021/08/30 08:31:10;;;;;;;9.93;7.40;;;;;;;14.30;100.00;96658.09;5032785;28;20186;-64
2021/08/30 08:33:35;;;;;;;8.97;7.83;;;;;;;14.38;100.00;96667.41;5034050;28;20195;-64
2021/08/30 08:36:00;;;;;;;10.17;7.30;;;;;;;14.15;100.00;96665.91;5035372;28;20186;-62
2021/08/30 08:38:26;;;;;;;9.97;7.97;;;;;;;14.22;100.00;96666.47;5035241;28;20181;-62
2021/08/30 08:40:52;;;;;;;8.77;7.03;;;;;;;14.27;100.00;96670.97;5042896;28;20217;-63
2021/08/30 08:43:20;;;;;;;12.43;8.50;;;;;;;14.33;100.00;96683.16;5043094;28;20202;-67
2021/08/30 08:45:47;;;;;;;10.10;7.80;;;;;;;14.39;100.00;96684.81;5037551;28;20195;-62
2021/08/30 08:48:14;;;;;;;7.93;7.13;;;;;;;14.48;100.00;96689.38;5049669;28;20216;-71
2021/08/30 08:50:40;;;;;;;8.10;6.83;;;;;;;14.41;100.00;96682.72;5039407;28;20636;-63
2021/08/30 08:53:08;;;;;;;8.30;6.90;;;;;;;14.30;100.00;96692.38;5036804;28;20605;-62
2021/08/30 08:55:34;;;;;;;7.17;6.23;;;;;;;14.25;100.00;96694.19;5036487;28;20265;-63
2021/08/30 08:58:11;;;;;;;8.13;6.33;;;;;;;14.25;100.00;96688.91;5038117;28;20192;-63
2021/08/30 09:00:41;;;;;;;7.67;6.73;;;;;;;14.26;100.00;96696.56;5039286;28;20693;-62
2021/08/30 09:03:17;;;;;;;7.90;6.47;;;;;;;14.37;100.00;96685.09;5048958;28;20182;-63
2021/08/30 09:05:43;;;;;;;9.20;6.63;;;;;;;14.67;100.00;96692.38;5043138;28;20190;-63
2021/08/30 09:08:28;;;;;;;8.20;6.90;;;;;;;14.88;100.00;96690.66;5037049;28;20277;-62
2021/08/30 09:10:53;;;;;;;6.97;6.17;;;;;;;15.10;100.00;96690.53;5028356;28;20185;-62
2021/08/30 09:13:25;;;;;;;7.30;6.27;;;;;;;15.48;100.00;96694.63;5039555;28;20190;-63
2021/08/30 09:15:52;;;;;;;7.50;6.10;;;;;;;15.53;100.00;96689.41;5043456;28;20189;-63
2021/08/30 09:18:17;;;;;;;6.53;5.27;;;;;;;15.73;100.00;96695.53;5046641;28;20194;-70
2021/08/30 09:20:43;;;;;;;7.10;6.40;;;;;;;16.00;100.00;96684.72;5039515;28;20224;-63
2021/08/30 09:23:15;;;;;;;6.27;5.20;;;;;;;16.24;100.00;96695.59;5039969;28;20235;-63
2021/08/30 09:25:41;;;;;;;9.47;5.63;;;;;;;16.46;100.00;96700.59;5045438;28;20174;-63
2021/08/30 09:28:07;;;;;;;6.27;5.63;;;;;;;16.38;100.00;96696.66;5018263;28;20191;-66
2021/08/30 09:30:32;;;;;;;6.23;5.60;;;;;;;16.43;100.00;96703.78;5034972;28;20185;-63
2021/08/30 09:32:59;;;;;;;7.43;6.20;;;;;;;16.20;100.00;96705.91;5049369;28;20624;-63
2021/08/30 09:35:25;;;;;;;8.13;5.97;;;;;;;15.88;100.00;96700.06;5047167;28;20609;-62
2021/08/30 09:37:50;;;;;;;8.13;6.40;;;;;;;15.95;100.00;96719.09;5035969;28;20182;-64
2021/08/30 09:40:18;;;;;;;9.97;7.03;;;;;;;15.96;100.00;96704.00;5033251;28;20241;-63
2021/08/30 09:42:50;;;;;;;7.07;6.23;;;;;;;16.08;100.00;96692.13;5037258;28;20686;-62
2021/08/30 09:45:26;;;;;;;8.77;6.50;;;;;;;15.80;100.00;96704.00;5039929;28;20191;-62
2021/08/30 09:48:04;;;;;;;7.17;6.17;;;;;;;16.06;100.00;96696.88;5036113;28;20666;-62
2021/08/30 09:50:34;;;;;;;8.60;6.70;;;;;;;16.15;100.00;96697.97;5021054;28;20260;-62
2021/08/30 09:53:01;;;;;;;8.50;6.77;;;;;;;16.32;100.00;96707.50;5050667;28;20162;-62
2021/08/30 09:55:27;;;;;;;9.67;7.27;;;;;;;15.67;100.00;96701.84;5039390;28;20607;-67
2021/08/30 09:57:54;;;;;;;11.77;7.67;;;;;;;15.35;100.00;96701.19;5039391;28;20267;-63
2021/08/30 10:00:21;;;;;;;8.37;7.20;;;;;;;15.31;100.00;96710.69;5035361;28;20229;-64
2021/08/30 10:02:52;;;;;;;9.77;8.00;;;;;;;15.31;100.00;96708.84;5042607;28;20274;-63
2021/08/30 10:05:17;;;;;;;9.90;8.20;;;;;;;15.47;100.00;96700.97;5035515;28;20175;-63
2021/08/30 10:07:45;;;;;;;10.07;7.80;;;;;;;15.23;100.00;96708.53;5047340;28;20663;-63
2021/08/30 10:10:13;;;;;;;10.67;8.30;;;;;;;15.19;100.00;96707.47;5032533;28;20183;-63
2021/08/30 10:12:40;;;;;;;10.50;8.73;;;;;;;14.96;100.00;96709.47;5041122;28;20235;-63
2021/08/30 10:15:07;;;;;;;10.67;8.10;;;;;;;14.91;100.00;96708.63;5037546;28;20194;-64
2021/08/30 10:17:33;;;;;;;12.53;9.20;;;;;;;15.21;100.00;96706.13;5046298;28;20546;-63
2021/08/30 10:20:00;;;;;;;12.70;9.57;;;;;;;15.42;100.00;96703.59;5035533;28;20255;-63
2021/08/30 10:22:26;;;;;;;11.67;9.47;;;;;;;15.73;100.00;96702.66;5045293;28;20186;-63
2021/08/30 10:24:53;;;;;;;13.17;9.57;;;;;;;16.48;100.00;96701.94;5039498;28;20177;-61
2021/08/30 10:27:34;;;;;;;10.40;8.13;;;;;;;16.69;100.00;96700.09;5031559;28;20627;-63
2021/08/30 10:30:18;;;;;;;11.60;7.00;;;;;;;16.62;100.00;96696.91;5041866;28;20187;-61
2021/08/30 10:32:44;;;;;;;7.27;5.77;;;;;;;15.90;100.00;96713.78;5040462;28;20174;-61
2021/08/30 10:35:15;;;;;;;7.10;6.40;;;;;;;16.06;100.00;96709.31;5038598;28;20218;-62
2021/08/30 10:37:55;;;;;;;8.63;6.77;;;;;;;15.58;100.00;96724.56;5032838;28;20183;-63
2021/08/30 10:40:21;;;;;;;7.20;6.50;;;;;;;14.87;100.00;96715.47;5037283;28;20202;-63
2021/08/30 10:43:07;;;;;;;9.10;6.60;;;;;;;14.77;100.00;96718.84;5029267;28;20226;-63
2021/08/30 10:45:34;;;;;;;9.13;7.87;;;;;;;14.71;100.00;96721.72;5043392;28;20277;-63
2021/08/30 10:48:03;;;;;;;10.43;8.43;;;;;;;14.67;100.00;96715.34;5035876;28;20183;-63
2021/08/30 10:50:30;;;;;;;13.47;10.00;;;;;;;14.69;100.00;96732.50;5038649;28;20186;-67
2021/08/30 10:53:15;;;;;;;12.77;9.83;;;;;;;14.62;100.00;96717.94;5043118;28;20671;-62
2021/08/30 10:55:42;;;;;;;14.10;10.70;;;;;;;14.72;100.00;96724.06;5036076;28;20170;-64
2021/08/30 10:58:27;;;;;;;13.83;10.73;;;;;;;15.02;100.00;96730.59;5041428;28;20650;-62
2021/08/30 11:00:55;;;;;;;15.87;10.43;;;;;;;15.14;100.00;96726.72;5031670;28;20202;-61
2021/08/30 11:03:29;;;;;;;14.90;10.73;;;;;;;14.89;100.00;96731.84;5038706;28;20224;-61
2021/08/30 11:06:07;;;;;;;12.83;9.17;;;;;;;14.69;100.00;96721.97;5041470;28;20625;-61
2021/08/30 11:08:38;;;;;;;11.27;8.77;;;;;;;14.97;100.00;96724.25;5048261;28;20696;-61
2021/08/30 11:11:11;;;;;;;15.27;8.13;;;;;;;14.80;100.00;96736.81;5040597;28;20184;-61
2021/08/30 11:13:36;;;;;;;10.50;8.77;;;;;;;14.72;100.00;96741.75;5044085;28;20360;-61
2021/08/30 11:16:02;;;;;;;11.47;8.57;;;;;;;14.94;100.00;96743.22;5035738;28;20663;-61
2021/08/30 11:18:27;;;;;;;10.80;8.27;;;;;;;15.27;100.00;96742.06;5039122;28;20190;-62
2021/08/30 11:20:52;;;;;;;9.83;7.70;;;;;;;15.36;100.00;96745.84;5046388;28;20190;-61